createdAt,value
2018-12-04T00:00:45.221Z,109.75
2018-12-04T00:03:41.182Z,113.10
2018-12-04T00:06:37.146Z,118.45
2018-12-04T00:09:33.328Z,127.53
2018-12-04T00:12:29.355Z,128.00
2018-12-04T00:15:25.696Z,126.33
2018-12-04T00:18:22.310Z,128.60
2018-12-04T00:21:19.004Z,129.12
2018-12-04T00:24:15.383Z,129.45
2018-12-04T00:27:11.937Z,130.47
2018-12-04T00:30:08.441Z,131.03
2018-12-04T00:33:04.707Z,132.07
2018-12-04T00:36:03.191Z,133.78
2018-12-04T00:39:00.108Z,131.85
2018-12-04T00:41:56.993Z,133.35
2018-12-04T00:44:56.670Z,134.30
2018-12-04T00:47:53.278Z,128.65
2018-12-04T00:50:49.927Z,128.27
2018-12-04T00:53:46.119Z,126.87
2018-12-04T00:56:43.192Z,124.58
2018-12-04T00:59:39.203Z,119.08
2018-12-04T01:02:36.051Z,117.62
2018-12-04T01:05:32.180Z,113.95
2018-12-04T01:08:31.030Z,111.57
2018-12-04T01:11:27.054Z,113.42
2018-12-04T01:14:24.029Z,114.20
2018-12-04T01:17:20.546Z,114.42
2018-12-04T01:20:17.421Z,113.92
2018-12-04T01:23:14.395Z,117.17
2018-12-04T01:26:10.555Z,122.72
2018-12-04T01:29:07.674Z,117.45
2018-12-04T01:32:07.389Z,114.30
2018-12-04T01:35:03.793Z,114.42
2018-12-04T01:38:00.199Z,113.00
2018-12-04T01:40:56.460Z,113.90
2018-12-04T01:43:52.587Z,111.72
2018-12-04T01:46:49.089Z,111.75
2018-12-04T01:49:45.136Z,113.32
2018-12-04T01:52:41.629Z,115.15
2018-12-04T01:55:37.503Z,111.88
2018-12-04T01:58:33.791Z,111.77
2018-12-04T02:01:30.329Z,111.22
2018-12-04T02:04:26.481Z,109.90
2018-12-04T02:07:22.546Z,110.15
2018-12-04T02:10:21.571Z,111.37
2018-12-04T02:13:18.005Z,109.75
2018-12-04T02:16:15.903Z,106.92
2018-12-04T02:19:12.527Z,118.20
2018-12-04T02:22:09.208Z,124.65
2018-12-04T02:25:05.591Z,118.25
2018-12-04T02:28:02.118Z,117.53
2018-12-04T02:30:58.850Z,120.13
2018-12-04T02:33:54.726Z,121.80
2018-12-04T02:36:50.889Z,114.77
2018-12-04T02:39:46.660Z,110.65
2018-12-04T02:42:43.439Z,109.30
2018-12-04T02:45:39.486Z,106.80
2018-12-04T02:48:35.899Z,105.92
2018-12-04T02:51:32.310Z,103.97
2018-12-04T02:54:28.387Z,105.30
2018-12-04T02:57:24.858Z,106.35
2018-12-04T03:00:21.653Z,108.67
2018-12-04T03:03:18.181Z,107.50
2018-12-04T03:06:14.437Z,109.95
2018-12-04T03:09:12.054Z,106.20
2018-12-04T03:12:09.078Z,100.82
2018-12-04T03:15:05.621Z,100.85
2018-12-04T03:18:01.894Z,93.25
2018-12-04T03:21:01.731Z,93.55
2018-12-04T03:23:58.492Z,92.67
2018-12-04T03:26:55.349Z,95.95
2018-12-04T03:29:52.421Z,94.95
2018-12-04T03:32:48.991Z,92.92
2018-12-04T03:35:45.127Z,94.10
2018-12-04T03:38:41.789Z,94.25
2018-12-04T03:41:37.799Z,94.92
2018-12-04T03:44:34.160Z,98.87
2018-12-04T03:47:32.836Z,99.45
2018-12-04T03:50:28.728Z,97.97
2018-12-04T03:53:24.791Z,97.17
2018-12-04T03:56:21.122Z,99.05
2018-12-04T03:59:17.021Z,98.33
2018-12-04T04:02:13.816Z,96.63
2018-12-04T04:05:10.401Z,95.40
2018-12-04T04:08:06.964Z,96.72
2018-12-04T04:11:03.798Z,100.45
2018-12-04T04:14:00.114Z,96.75
2018-12-04T04:16:56.893Z,100.47
2018-12-04T04:19:53.308Z,99.35
2018-12-04T04:22:49.672Z,99.00
2018-12-04T04:25:46.296Z,93.62
2018-12-04T04:28:43.479Z,94.92
2018-12-04T04:31:40.272Z,93.52
2018-12-04T04:34:37.184Z,95.62
2018-12-04T04:37:33.783Z,96.35
2018-12-04T04:40:31.054Z,102.80
2018-12-04T04:43:27.266Z,89.17
2018-12-04T04:46:23.651Z,93.10
2018-12-04T04:49:19.827Z,90.70
2018-12-04T04:52:19.142Z,87.97
2018-12-04T04:55:15.806Z,89.85
2018-12-04T04:58:13.402Z,87.70
2018-12-04T05:01:22.021Z,85.83
2018-12-04T05:04:10.884Z,85.65
2018-12-04T05:07:07.254Z,86.78
2018-12-04T05:10:05.034Z,81.47
2018-12-04T05:16:53.922Z,84.25
2018-12-04T05:19:54.928Z,85.15
2018-12-04T05:23:08.685Z,77.08
2018-12-04T05:26:15.260Z,81.90
2018-12-04T05:29:23.201Z,80.20
2018-12-04T05:32:21.985Z,76.00
2018-12-04T05:35:16.927Z,64.10
2018-12-04T05:41:34.744Z,65.00
2018-12-04T05:44:32.301Z,59.30
2018-12-04T05:47:29.221Z,59.90
2018-12-04T05:50:29.223Z,58.52
2018-12-04T05:53:42.046Z,64.03
2018-12-04T05:56:39.362Z,64.20
2018-12-04T05:59:42.671Z,59.98
2018-12-04T06:03:04.258Z,63.10
2018-12-04T06:05:53.968Z,62.03
2018-12-04T06:08:57.028Z,62.23
2018-12-04T06:11:51.643Z,61.73
2018-12-04T06:14:47.939Z,73.83
2018-12-04T06:17:46.785Z,61.10
2018-12-04T06:20:46.849Z,61.98
2018-12-04T06:23:52.468Z,57.30
2018-12-04T06:26:50.312Z,58.52
2018-12-04T06:29:55.010Z,60.58
2018-12-04T06:40:18.759Z,57.45
2018-12-04T06:43:19.015Z,62.33
2018-12-04T06:46:16.971Z,57.25
2018-12-04T06:49:17.475Z,61.10
2018-12-04T06:52:14.155Z,58.87
2018-12-04T06:55:19.445Z,59.73
2018-12-04T06:58:20.649Z,56.58
2018-12-04T07:01:17.447Z,55.15
2018-12-04T07:05:00.014Z,58.50
2018-12-04T07:08:02.363Z,56.55
2018-12-04T07:11:02.509Z,55.58
2018-12-04T07:14:05.341Z,56.95
2018-12-04T07:20:03.548Z,55.95
2018-12-04T07:23:00.443Z,53.52
2018-12-04T07:25:57.426Z,52.67
2018-12-04T07:28:53.785Z,48.98
2018-12-04T07:31:50.941Z,51.42
2018-12-04T07:34:47.286Z,54.95
2018-12-04T07:38:04.451Z,52.13
2018-12-04T07:41:04.234Z,49.35
2018-12-04T07:44:27.832Z,50.33
2018-12-04T07:47:37.502Z,50.50
2018-12-04T07:50:47.577Z,50.95
2018-12-04T07:54:11.414Z,50.48
2018-12-04T08:01:05.902Z,52.23
2018-12-04T08:04:19.212Z,51.55
2018-12-04T08:07:08.586Z,54.27
2018-12-04T08:10:13.136Z,53.40
2018-12-04T08:13:20.007Z,51.65
2018-12-04T08:16:23.289Z,51.45
2018-12-04T08:19:20.362Z,51.42
2018-12-04T08:22:22.263Z,53.30
2018-12-04T08:25:30.649Z,53.68
2018-12-04T08:28:28.055Z,53.60
2018-12-04T08:31:25.663Z,54.35
2018-12-04T08:34:21.850Z,53.83
2018-12-04T08:37:18.320Z,52.80
2018-12-04T08:40:15.550Z,54.50
2018-12-04T08:43:11.687Z,53.98
2018-12-04T08:46:08.011Z,55.15
2018-12-04T08:49:04.510Z,55.30
2018-12-04T08:52:00.830Z,54.73
2018-12-04T08:54:57.246Z,53.95
2018-12-04T08:57:56.190Z,52.65
2018-12-04T09:00:54.822Z,55.10
2018-12-04T09:03:51.071Z,57.13
2018-12-04T09:06:50.525Z,55.38
2018-12-04T09:09:46.889Z,55.33
2018-12-04T09:12:43.443Z,55.43
2018-12-04T09:15:43.778Z,56.23
2018-12-04T09:18:43.702Z,55.43
2018-12-04T09:21:36.107Z,55.52
2018-12-04T09:24:35.274Z,56.90
2018-12-04T09:27:31.528Z,57.58
2018-12-04T09:30:28.179Z,56.88
2018-12-04T09:33:24.941Z,53.45
2018-12-04T09:36:22.874Z,57.40
2018-12-04T09:39:20.613Z,56.68
2018-12-04T09:42:17.303Z,56.98
2018-12-04T09:45:17.914Z,53.17
2018-12-04T09:48:15.716Z,55.17
2018-12-04T09:51:16.484Z,55.60
2018-12-04T09:54:16.586Z,55.28
2018-12-04T09:57:10.739Z,54.53
2018-12-04T10:00:08.246Z,55.05
2018-12-04T10:03:11.691Z,54.67
2018-12-04T10:06:11.661Z,54.27
2018-12-04T10:12:25.134Z,53.17
2018-12-04T10:15:23.688Z,56.20
2018-12-04T10:18:20.162Z,56.80
2018-12-04T10:21:16.194Z,53.80
2018-12-04T10:24:13.016Z,51.70
2018-12-04T10:27:14.697Z,53.13
2018-12-04T10:30:16.275Z,52.80
2018-12-04T10:33:12.508Z,56.05
2018-12-04T10:36:09.706Z,58.60
2018-12-04T10:39:06.965Z,58.70
2018-12-04T10:42:06.106Z,59.25
2018-12-04T10:45:04.727Z,59.90
2018-12-04T10:48:01.369Z,61.92
2018-12-04T10:50:58.014Z,61.02
2018-12-04T10:53:54.887Z,59.85
2018-12-04T10:56:51.474Z,61.60
2018-12-04T10:59:51.597Z,61.55
2018-12-04T11:02:53.689Z,61.28
2018-12-04T11:05:50.900Z,62.90
2018-12-04T11:08:50.977Z,61.58
2018-12-04T11:19:24.879Z,62.35
2018-12-04T11:22:23.168Z,61.80
2018-12-04T11:25:19.951Z,61.40
2018-12-04T11:28:16.484Z,62.38
2018-12-04T11:31:13.438Z,61.10
2018-12-04T11:34:09.950Z,59.83
2018-12-04T11:37:06.680Z,62.93
2018-12-04T11:40:03.290Z,59.45
2018-12-04T11:42:59.715Z,60.80
2018-12-04T11:45:55.979Z,59.63
2018-12-04T11:48:52.631Z,58.78
2018-12-04T11:51:48.796Z,62.48
2018-12-04T11:54:49.146Z,61.05
2018-12-04T11:57:45.199Z,64.20
2018-12-04T12:00:44.204Z,66.28
2018-12-04T12:03:50.770Z,65.32
2018-12-04T12:06:55.711Z,66.62
2018-12-04T12:10:09.939Z,68.15
2018-12-04T12:13:26.788Z,68.78
2018-12-04T12:16:24.895Z,70.70
2018-12-04T12:19:22.483Z,70.75
2018-12-04T12:22:19.940Z,69.77
2018-12-04T12:25:16.665Z,72.53
2018-12-04T12:28:13.369Z,73.33
2018-12-04T12:31:09.806Z,74.05
2018-12-04T12:34:05.880Z,75.08
2018-12-04T12:37:01.937Z,78.17
2018-12-04T12:39:59.073Z,76.90
2018-12-04T12:43:03.282Z,75.87
2018-12-04T12:45:59.911Z,76.97
2018-12-04T12:48:57.061Z,76.70
2018-12-04T12:51:53.551Z,74.10
2018-12-04T12:54:50.571Z,78.17
2018-12-04T12:57:48.604Z,78.83
2018-12-04T13:00:46.875Z,76.42
2018-12-04T13:03:45.469Z,77.22
2018-12-04T13:06:43.298Z,82.12
2018-12-04T13:09:41.290Z,86.82
2018-12-04T13:12:40.351Z,85.50
2018-12-04T13:15:38.013Z,82.12
2018-12-04T13:18:38.261Z,83.30
2018-12-04T13:21:35.545Z,86.47
2018-12-04T13:24:32.397Z,84.87
2018-12-04T13:27:29.815Z,85.42
2018-12-04T13:30:26.438Z,83.92
2018-12-04T13:33:23.275Z,85.25
2018-12-04T13:36:20.206Z,87.25
2018-12-04T13:39:17.798Z,87.37
2018-12-04T13:42:15.209Z,87.35
2018-12-04T13:45:13.062Z,87.45
2018-12-04T13:48:09.977Z,87.67
2018-12-04T13:51:06.718Z,85.95
2018-12-04T13:54:03.392Z,85.25
2018-12-04T13:57:00.629Z,85.45
2018-12-04T13:59:57.096Z,87.80
2018-12-04T14:02:53.803Z,86.53
2018-12-04T14:05:50.925Z,88.55
2018-12-04T14:08:48.284Z,89.92
2018-12-04T14:11:45.708Z,90.03
2018-12-04T14:14:44.047Z,89.80
2018-12-04T14:17:41.642Z,94.03
2018-12-04T14:20:38.522Z,95.62
2018-12-04T14:23:35.118Z,92.35
2018-12-04T14:26:32.042Z,95.47
2018-12-04T14:29:28.814Z,92.15
2018-12-04T14:32:25.839Z,95.30
2018-12-04T14:35:22.963Z,94.70
2018-12-04T14:38:19.540Z,94.25
2018-12-04T14:41:15.968Z,96.22
2018-12-04T14:44:13.039Z,97.00
2018-12-04T14:47:10.452Z,97.27
2018-12-04T14:50:07.279Z,95.60
2018-12-04T14:53:03.926Z,101.35
2018-12-04T14:56:00.855Z,98.87
2018-12-04T14:58:57.363Z,98.00
2018-12-04T15:01:57.457Z,99.67
2018-12-04T15:04:53.899Z,98.78
2018-12-04T15:07:50.593Z,95.10
2018-12-04T15:10:47.243Z,97.90
2018-12-04T15:13:43.686Z,99.25
2018-12-04T15:16:40.802Z,99.62
2018-12-04T15:19:38.912Z,98.05
2018-12-04T15:22:35.911Z,97.82
2018-12-04T15:25:33.130Z,97.80
2018-12-04T15:28:30.147Z,99.92
2018-12-04T15:31:27.555Z,99.40
2018-12-04T15:34:24.579Z,99.75
2018-12-04T15:37:22.551Z,98.35
2018-12-04T15:40:19.649Z,99.87
2018-12-04T15:43:16.460Z,95.87
2018-12-04T15:46:13.701Z,97.50
2018-12-04T15:49:10.447Z,94.90
2018-12-04T15:52:07.250Z,97.17
2018-12-04T15:55:04.538Z,96.85
2018-12-04T15:58:01.694Z,99.52
2018-12-04T16:00:59.819Z,95.65
2018-12-04T16:03:56.095Z,97.53
2018-12-04T16:06:53.118Z,97.33
2018-12-04T16:09:49.654Z,93.82
2018-12-04T16:12:47.339Z,95.03
2018-12-04T16:15:43.925Z,96.78
2018-12-04T16:18:41.598Z,94.55
2018-12-04T16:21:39.200Z,92.53
2018-12-04T16:24:38.259Z,93.97
2018-12-04T16:27:35.618Z,92.00
2018-12-04T16:30:33.177Z,86.17
2018-12-04T16:33:30.337Z,87.25
2018-12-04T16:36:31.553Z,85.65
2018-12-04T16:39:29.329Z,86.00
2018-12-04T16:42:26.758Z,84.03
2018-12-04T16:45:24.849Z,86.72
2018-12-04T16:48:22.024Z,86.57
2018-12-04T16:51:18.742Z,85.77
2018-12-04T16:54:16.339Z,84.67
2018-12-04T16:57:13.149Z,81.95
2018-12-04T17:00:11.121Z,84.05
2018-12-04T17:03:07.678Z,86.42
2018-12-04T17:06:05.086Z,87.95
2018-12-04T17:09:02.207Z,87.60
2018-12-04T17:12:00.359Z,90.38
2018-12-04T17:14:56.853Z,93.62
2018-12-04T17:17:53.536Z,92.50
2018-12-04T17:20:50.346Z,89.10
2018-12-04T17:23:51.770Z,86.10
2018-12-04T17:26:46.196Z,88.30
2018-12-04T17:29:46.275Z,93.30
2018-12-04T17:32:44.160Z,90.85
2018-12-04T17:35:41.692Z,92.72
2018-12-04T17:38:39.221Z,92.60
2018-12-04T17:41:36.147Z,92.12
2018-12-04T17:44:40.014Z,90.67
2018-12-04T17:47:31.143Z,88.70
2018-12-04T17:50:28.338Z,89.83
2018-12-04T17:53:25.548Z,92.25
2018-12-04T17:56:22.564Z,89.58
2018-12-04T17:59:19.441Z,92.50
2018-12-04T18:02:16.262Z,91.45
2018-12-04T18:05:14.370Z,91.67
2018-12-04T18:08:11.697Z,94.45
2018-12-04T18:11:09.531Z,96.47
2018-12-04T18:14:06.472Z,93.67
2018-12-04T18:17:06.355Z,96.90
2018-12-04T18:20:02.727Z,98.42
2018-12-04T18:22:59.442Z,98.35
2018-12-04T18:25:56.386Z,94.83
2018-12-04T18:28:54.658Z,96.47
2018-12-04T18:31:51.778Z,93.37
2018-12-04T18:34:48.609Z,91.15
2018-12-04T18:37:45.481Z,92.78
2018-12-04T18:40:42.578Z,91.72
2018-12-04T18:43:39.461Z,96.47
2018-12-04T18:46:36.555Z,91.70
2018-12-04T18:49:36.398Z,87.62
2018-12-04T18:52:33.767Z,89.32
2018-12-04T18:55:31.111Z,91.80
2018-12-04T18:58:28.313Z,91.70
2018-12-04T19:01:25.251Z,90.62
2018-12-04T19:04:22.251Z,92.12
2018-12-04T19:07:19.131Z,91.90
2018-12-04T19:10:16.408Z,89.72
2018-12-04T19:13:13.348Z,89.65
2018-12-04T19:16:10.620Z,90.90
2018-12-04T19:19:07.423Z,89.47
2018-12-04T19:22:04.415Z,87.85
2018-12-04T19:25:02.119Z,86.72
2018-12-04T19:28:00.480Z,87.42
2018-12-04T19:31:02.640Z,87.33
2018-12-04T19:33:54.853Z,85.90
2018-12-04T19:36:52.057Z,85.28
2018-12-04T19:39:49.911Z,84.22
2018-12-04T19:42:48.844Z,84.97
2018-12-04T19:45:46.462Z,84.85
2018-12-04T19:48:44.096Z,86.72
2018-12-04T19:51:40.919Z,85.50
2018-12-04T19:54:38.251Z,91.78
2018-12-04T19:57:35.554Z,94.65
2018-12-04T20:00:33.094Z,95.90
2018-12-04T20:03:30.479Z,97.47
2018-12-04T20:06:28.237Z,92.45
2018-12-04T20:09:25.332Z,91.95
2018-12-04T20:12:22.869Z,91.60
2018-12-04T20:15:20.510Z,89.47
2018-12-04T20:18:20.988Z,87.00
2018-12-04T20:21:18.275Z,87.92
2018-12-04T20:24:15.570Z,94.60
2018-12-04T20:27:12.859Z,87.50
2018-12-04T20:30:11.404Z,88.67
2018-12-04T20:33:09.054Z,84.85
2018-12-04T20:36:06.735Z,85.92
2018-12-04T20:39:04.756Z,83.37
2018-12-04T20:42:02.803Z,83.07
2018-12-04T20:45:00.339Z,83.52
2018-12-04T20:47:58.153Z,82.67
2018-12-04T20:50:58.297Z,83.55
2018-12-04T20:53:55.929Z,84.32
2018-12-04T20:56:53.729Z,87.22
2018-12-04T20:59:51.261Z,86.40
2018-12-04T21:02:48.587Z,91.85
2018-12-04T21:05:46.132Z,92.15
2018-12-04T21:08:43.564Z,89.97
2018-12-04T21:11:44.110Z,92.35
2018-12-04T21:14:41.945Z,96.50
2018-12-04T21:17:39.440Z,129.97
2018-12-04T21:20:37.389Z,134.00
2018-12-04T21:23:34.462Z,127.15
2018-12-04T21:26:36.824Z,119.50
2018-12-04T21:29:46.003Z,110.83
2018-12-04T21:33:00.043Z,97.62
2018-12-04T21:36:13.785Z,97.95
2018-12-04T21:39:47.058Z,94.15
2018-12-04T21:43:00.186Z,89.72
2018-12-04T21:46:14.444Z,93.25
2018-12-04T21:49:11.477Z,93.65
2018-12-04T21:52:09.523Z,89.58
2018-12-04T21:55:07.041Z,90.95
2018-12-04T21:58:07.672Z,92.17
2018-12-04T22:01:05.107Z,93.12
2018-12-04T22:04:02.488Z,91.00
2018-12-04T22:07:00.069Z,89.97
2018-12-04T22:09:57.400Z,90.83
2018-12-04T22:12:55.087Z,93.27
2018-12-04T22:15:52.909Z,92.42
2018-12-04T22:18:50.440Z,93.05
2018-12-04T22:21:53.228Z,92.72
2018-12-04T22:24:50.856Z,91.92
2018-12-04T22:27:48.509Z,96.40
2018-12-04T22:30:45.986Z,97.02
2018-12-04T22:33:43.189Z,95.42
2018-12-04T22:36:40.935Z,94.65
2018-12-04T22:39:38.906Z,94.95
2018-12-04T22:42:36.216Z,93.45
2018-12-04T22:45:33.613Z,91.92
2018-12-04T22:48:30.923Z,92.35
2018-12-04T22:51:28.174Z,95.10
2018-12-04T22:54:25.143Z,96.10
2018-12-04T22:57:22.449Z,96.10
2018-12-04T23:00:25.898Z,92.50
2018-12-04T23:03:23.555Z,94.00
2018-12-04T23:06:21.141Z,94.50
2018-12-04T23:09:19.076Z,90.80
2018-12-04T23:12:16.916Z,92.37
2018-12-04T23:15:14.154Z,91.82
2018-12-04T23:18:11.345Z,91.50
2018-12-04T23:21:09.005Z,93.67
2018-12-04T23:24:06.375Z,94.32
2018-12-04T23:27:03.748Z,100.72
2018-12-04T23:30:04.990Z,99.47
2018-12-04T23:33:02.335Z,101.02
2018-12-04T23:36:02.853Z,99.05
2018-12-04T23:39:00.539Z,98.75
2018-12-04T23:41:58.723Z,97.45
2018-12-04T23:44:56.283Z,99.65
2018-12-04T23:47:53.414Z,106.32
2018-12-04T23:50:51.452Z,117.77
2018-12-04T23:53:48.534Z,137.32
2018-12-04T23:56:48.916Z,147.47
2018-12-04T23:59:46.579Z,156.87
